createdAt,value
2017-05-30T00:02:08.414Z,6.25
2017-05-30T00:04:37.214Z,5.57
2017-05-30T04:38:55.482Z,4.70
2017-05-30T04:46:20.782Z,4.17
2017-05-30T04:48:49.610Z,4.37
2017-05-30T04:51:18.418Z,4.00
2017-05-30T04:53:47.223Z,4.32
2017-05-30T04:56:16.055Z,4.98
2017-05-30T04:58:44.853Z,4.43
2017-05-30T05:01:13.645Z,5.62
2017-05-30T05:03:42.469Z,4.22
2017-05-30T05:06:11.294Z,4.18
2017-05-30T05:08:40.102Z,5.40
2017-05-30T05:11:08.911Z,4.77
2017-05-30T05:13:37.746Z,4.17
2017-05-30T05:16:06.590Z,6.58
2017-05-30T05:18:35.581Z,6.93
2017-05-30T05:21:04.426Z,4.43
2017-05-30T05:23:33.234Z,7.47
2017-05-30T05:26:02.055Z,5.13
2017-05-30T05:28:30.862Z,4.75
2017-05-30T05:30:59.679Z,10.37
2017-05-30T05:33:28.501Z,6.12
2017-05-30T05:35:57.331Z,4.85
2017-05-30T05:38:26.137Z,4.35
2017-05-30T05:40:54.944Z,5.72
2017-05-30T05:43:23.758Z,8.98
2017-05-30T05:45:52.593Z,6.37
2017-05-30T05:48:21.441Z,5.83
2017-05-30T05:50:50.246Z,6.05
2017-05-30T05:53:19.050Z,5.10
2017-05-30T05:55:47.898Z,6.65
2017-05-30T05:58:16.702Z,6.02
2017-05-30T06:00:45.506Z,6.83
2017-05-30T06:03:14.322Z,9.55
2017-05-30T06:05:43.130Z,5.77
2017-05-30T06:08:11.978Z,6.45
2017-05-30T06:10:40.781Z,7.03
2017-05-30T06:13:09.590Z,7.35
2017-05-30T06:15:38.410Z,8.15
2017-05-30T06:18:07.241Z,6.68
2017-05-30T06:20:36.053Z,9.12
2017-05-30T06:23:04.865Z,8.08
2017-05-30T06:25:33.681Z,7.45
2017-05-30T06:28:02.490Z,7.07
2017-05-30T06:30:31.306Z,9.25
2017-05-30T06:33:00.109Z,7.68
2017-05-30T06:35:28.956Z,7.63
2017-05-30T06:37:57.794Z,10.47
2017-05-30T06:40:26.602Z,7.35
2017-05-30T06:42:55.437Z,7.58
2017-05-30T06:45:25.057Z,28.60
2017-05-30T06:47:53.897Z,19.68
2017-05-30T06:50:22.710Z,29.22
2017-05-30T06:52:51.522Z,28.57
2017-05-30T06:55:20.366Z,29.38
2017-05-30T06:57:49.181Z,29.37
2017-05-30T07:00:18.002Z,29.18
2017-05-30T07:02:46.846Z,31.00
2017-05-30T07:05:15.658Z,25.95
2017-05-30T07:07:44.485Z,13.90
2017-05-30T07:10:13.329Z,15.02
2017-05-30T07:12:42.143Z,13.28
2017-05-30T07:15:10.959Z,17.97
2017-05-30T07:17:39.837Z,11.85
2017-05-30T07:20:08.654Z,12.15
2017-05-30T07:22:38.185Z,13.72
2017-05-30T07:25:06.998Z,12.97
2017-05-30T07:27:35.826Z,16.05
2017-05-30T07:30:04.665Z,15.68
2017-05-30T07:32:33.477Z,15.22
2017-05-30T07:35:02.298Z,15.98
2017-05-30T07:37:31.142Z,16.03
2017-05-30T07:39:59.962Z,13.12
2017-05-30T07:42:28.769Z,12.87
2017-05-30T07:44:57.599Z,13.22
2017-05-30T07:47:26.431Z,17.63
2017-05-30T07:49:55.266Z,16.47
2017-05-30T07:52:24.083Z,14.93
2017-05-30T07:54:52.915Z,14.53
2017-05-30T07:57:21.762Z,17.15
2017-05-30T07:59:50.581Z,19.18
2017-05-30T08:02:19.410Z,16.47
2017-05-30T08:04:48.265Z,17.37
2017-05-30T08:07:17.082Z,16.70
2017-05-30T08:09:45.898Z,17.03
2017-05-30T08:12:14.737Z,16.42
2017-05-30T08:14:43.555Z,17.60
2017-05-30T08:17:12.765Z,19.65
2017-05-30T08:22:09.814Z,19.15
2017-05-30T08:27:06.880Z,19.48
2017-05-30T08:32:03.970Z,27.70
2017-05-30T08:34:32.785Z,22.63
2017-05-30T08:37:01.630Z,26.50
2017-05-30T08:39:30.441Z,26.32
2017-05-30T08:41:59.270Z,27.88
2017-05-30T08:44:28.106Z,28.70
2017-05-30T08:46:56.917Z,26.85
2017-05-30T08:49:25.754Z,30.45
2017-05-30T08:51:54.574Z,25.38
2017-05-30T08:54:23.406Z,25.43
2017-05-30T08:56:52.237Z,27.93
2017-05-30T08:59:21.177Z,25.07
2017-05-30T09:01:50.024Z,25.17
2017-05-30T09:04:18.837Z,23.92
2017-05-30T09:06:47.676Z,28.25
2017-05-30T09:09:16.518Z,25.03
2017-05-30T09:11:45.333Z,24.78
2017-05-30T09:14:14.152Z,29.38
2017-05-30T09:36:28.977Z,22.15
2017-05-30T09:38:57.799Z,20.18
2017-05-30T09:43:54.880Z,20.33
2017-05-30T09:46:23.693Z,18.37
2017-05-30T09:48:52.514Z,21.78
2017-05-30T09:51:21.360Z,22.52
2017-05-30T09:53:50.180Z,22.58
2017-05-30T09:56:19.031Z,24.68
2017-05-30T09:58:47.845Z,20.02
2017-05-30T10:01:16.666Z,21.67
2017-05-30T10:03:45.473Z,17.50
2017-05-30T10:06:14.302Z,17.28
2017-05-30T10:11:11.522Z,16.62
2017-05-30T10:13:40.338Z,14.95
2017-05-30T10:16:09.186Z,14.88
2017-05-30T10:26:02.961Z,11.68
2017-05-30T10:28:31.773Z,11.37
2017-05-30T10:31:00.682Z,11.53
2017-05-30T10:33:29.670Z,12.10
2017-05-30T10:35:58.481Z,10.05
2017-05-30T10:38:27.294Z,12.38
2017-05-30T10:40:56.130Z,10.75
2017-05-30T10:43:24.946Z,13.35
2017-05-30T10:45:53.764Z,13.28
2017-05-30T10:48:22.601Z,10.30
2017-05-30T10:58:16.142Z,9.97
2017-05-30T11:00:45.065Z,8.55
2017-05-30T11:03:13.901Z,8.17
2017-05-30T11:05:42.706Z,7.93
2017-05-30T11:08:11.510Z,8.02
2017-05-30T11:27:58.116Z,8.55
2017-05-30T11:30:26.967Z,13.80
2017-05-30T11:32:55.770Z,8.43
2017-05-30T11:35:24.573Z,12.70
2017-05-30T11:37:53.405Z,10.27
2017-05-30T11:40:22.213Z,10.80
2017-05-30T11:42:51.022Z,9.73
2017-05-30T11:45:19.856Z,8.43
2017-05-30T12:14:59.830Z,10.02
2017-05-30T12:59:28.949Z,6.95
2017-05-30T13:04:25.966Z,9.30
2017-05-30T13:09:23.129Z,6.00
2017-05-30T13:16:48.433Z,7.00
2017-05-30T13:19:17.266Z,7.45
2017-05-30T13:31:39.069Z,6.65
2017-05-30T13:34:07.878Z,6.55
2017-05-30T13:41:33.222Z,8.80
2017-05-30T13:44:02.025Z,8.67
2017-05-30T13:46:30.846Z,6.70
2017-05-30T13:48:59.685Z,6.35
2017-05-30T13:51:28.494Z,5.93
2017-05-30T13:53:57.298Z,6.75
2017-05-30T13:56:26.123Z,5.70
2017-05-30T14:38:26.894Z,8.18
2017-05-30T14:40:55.701Z,7.72
2017-05-30T14:43:24.505Z,8.53
2017-05-30T14:45:53.337Z,12.23
2017-05-30T14:48:22.141Z,8.37
2017-05-30T14:50:50.952Z,8.68
2017-05-30T14:53:19.785Z,8.40
2017-05-30T14:55:48.602Z,11.35
2017-05-30T14:58:17.405Z,9.48
2017-05-30T15:00:46.277Z,9.80
2017-05-30T15:03:15.083Z,12.45
2017-05-30T15:05:43.896Z,9.20
2017-05-30T15:08:12.722Z,8.52
2017-05-30T15:10:41.529Z,9.53
2017-05-30T15:13:10.338Z,13.68
2017-05-30T15:15:39.173Z,10.45
2017-05-30T15:18:08.038Z,11.07
2017-05-30T15:20:36.845Z,9.63
2017-05-30T15:23:05.653Z,13.33
2017-05-30T15:25:34.485Z,10.95
2017-05-30T15:28:03.293Z,10.40
2017-05-30T15:30:32.102Z,8.52
2017-05-30T15:33:00.955Z,10.77
2017-05-30T15:35:29.750Z,9.90
2017-05-30T15:37:58.558Z,8.67
2017-05-30T15:40:27.390Z,9.30
2017-05-30T15:42:56.189Z,9.00
2017-05-30T15:45:24.997Z,10.00
2017-05-30T15:47:53.830Z,8.82
2017-05-30T15:57:47.378Z,10.17
2017-05-30T16:37:19.985Z,4.12
2017-05-30T16:39:48.785Z,9.58
2017-05-30T16:42:17.597Z,5.08
2017-05-30T16:44:46.445Z,6.03
2017-05-30T16:47:15.255Z,6.13
2017-05-30T16:49:44.069Z,26.25
2017-05-30T16:52:12.893Z,7.93
2017-05-30T16:54:41.730Z,5.20
2017-05-30T16:57:10.553Z,7.67
2017-05-30T16:59:39.384Z,7.22
2017-05-30T17:02:08.194Z,6.77
2017-05-30T20:00:04.090Z,6.40
2017-05-30T20:02:32.897Z,5.90
2017-05-30T20:05:01.730Z,5.72
2017-05-30T20:07:30.509Z,6.44
2017-05-30T22:33:17.850Z,6.22
2017-05-30T22:35:46.650Z,5.65
2017-05-30T22:50:36.717Z,6.00
2017-05-30T22:53:05.549Z,7.23
2017-05-30T23:10:23.821Z,8.00
2017-05-30T23:12:52.653Z,6.23
2017-05-30T23:15:21.461Z,7.47
2017-05-30T23:17:50.264Z,6.45
2017-05-30T23:20:19.087Z,6.08
2017-05-30T23:22:47.892Z,6.27
2017-05-30T23:25:16.717Z,4.08
